Time;durP1;ratioP1;P1;durP2;ratioP2;P2;SDS_P1;SDS_P2;PMS_P1;PMS_P2;Temp;Humidity;BMP_temperature;BMP_pressure;BME280_temperature;BME280_humidity;BME280_pressure;Samples;Min_cycle;Max_cycle;Signal;HPM_P1;HPM_P2
2021/01/01 00:02:18;;;;;;;165.55;57.00;;;0.80;99.90;;;;;;10367248;28;20121;-52
2021/01/01 00:07:39;;;;;;;188.45;63.95;;;0.70;99.90;;;;;;10364720;28;20044;-52
2021/01/01 00:13:00;;;;;;;155.45;66.65;;;0.70;99.90;;;;;;10365611;28;20033;-52
2021/01/01 00:18:21;;;;;;;185.25;71.15;;;0.70;99.90;;;;;;10367234;28;20052;-52
2021/01/01 00:23:42;;;;;;;174.32;62.25;;;0.60;99.90;;;;;;10405942;28;20084;-52
2021/01/01 00:29:03;;;;;;;162.00;51.78;;;0.60;99.90;;;;;;10401117;28;20038;-52
2021/01/01 00:34:24;;;;;;;128.13;50.83;;;0.50;99.90;;;;;;10366854;28;20494;-52
2021/01/01 00:39:45;;;;;;;145.00;47.15;;;0.50;99.90;;;;;;10378568;28;20513;-53
2021/01/01 00:45:07;;;;;;;140.70;54.70;;;0.50;99.90;;;;;;10375431;28;20796;-52
2021/01/01 00:50:28;;;;;;;146.35;47.05;;;0.50;99.90;;;;;;10374620;28;20038;-52
2021/01/01 00:55:49;;;;;;;125.97;45.92;;;0.40;99.90;;;;;;10370918;28;20026;-52
2021/01/01 01:01:10;;;;;;;96.80;39.72;;;0.40;99.90;;;;;;10372468;28;20509;-52
2021/01/01 01:06:31;;;;;;;110.70;35.95;;;0.40;99.90;;;;;;10372188;28;20117;-52
2021/01/01 01:11:53;;;;;;;77.22;30.05;;;0.50;99.90;;;;;;10372982;28;20085;-52
2021/01/01 01:17:14;;;;;;;90.97;31.50;;;0.50;99.90;;;;;;10369050;28;20069;-53
2021/01/01 01:22:36;;;;;;;69.90;26.42;;;0.50;99.90;;;;;;10368880;28;20073;-52
2021/01/01 01:27:57;;;;;;;66.68;26.48;;;0.50;99.90;;;;;;10370789;28;20502;-52
2021/01/01 01:33:18;;;;;;;71.07;26.55;;;0.50;99.90;;;;;;10376115;28;20038;-52
2021/01/01 01:38:38;;;;;;;61.80;24.33;;;0.40;99.90;;;;;;10367370;28;20077;-52
2021/01/01 01:44:00;;;;;;;58.35;21.45;;;0.40;99.90;;;;;;10365143;28;20073;-52
2021/01/01 01:49:21;;;;;;;48.70;21.65;;;0.40;99.90;;;;;;10362143;28;20536;-53
2021/01/01 01:54:43;;;;;;;70.40;20.45;;;0.40;99.90;;;;;;10362351;28;20558;-53
2021/01/01 02:00:19;;;;;;;48.25;18.25;;;0.40;99.90;;;;;;10361849;28;20449;-52
2021/01/01 02:05:41;;;;;;;67.57;21.27;;;0.40;99.90;;;;;;10360045;28;20038;-53
2021/01/01 02:11:03;;;;;;;64.63;18.90;;;0.40;99.90;;;;;;10362156;28;20042;-52
2021/01/01 02:16:27;;;;;;;58.25;21.75;;;0.30;99.90;;;;;;10375851;28;20044;-52
2021/01/01 02:21:49;;;;;;;63.70;22.75;;;0.30;99.90;;;;;;10359731;28;20056;-52
2021/01/01 02:27:10;;;;;;;62.13;20.42;;;0.30;99.90;;;;;;10362994;28;20251;-52
2021/01/01 02:32:32;;;;;;;56.53;20.02;;;0.30;99.90;;;;;;10359833;28;20038;-52
2021/01/01 02:37:53;;;;;;;46.45;17.60;;;0.30;99.90;;;;;;10360306;28;20695;-52
2021/01/01 02:43:15;;;;;;;62.75;20.83;;;0.40;99.90;;;;;;10361098;28;20057;-52
2021/01/01 02:48:35;;;;;;;50.38;18.88;;;0.30;99.90;;;;;;10364369;28;20068;-52
2021/01/01 02:53:56;;;;;;;52.67;17.27;;;0.40;99.90;;;;;;10367946;28;20045;-52
2021/01/01 02:59:18;;;;;;;43.03;15.35;;;0.50;99.90;;;;;;10368352;28;20064;-52
2021/01/01 03:04:39;;;;;;;40.17;15.65;;;0.50;99.90;;;;;;10370884;28;20045;-51
2021/01/01 03:10:00;;;;;;;41.40;15.32;;;0.60;99.90;;;;;;10370615;28;20048;-52
2021/01/01 03:15:21;;;;;;;39.47;13.60;;;0.60;99.90;;;;;;10366416;28;20099;-52
2021/01/01 03:20:42;;;;;;;47.70;14.25;;;0.70;99.90;;;;;;10368031;28;20124;-52
2021/01/01 03:26:04;;;;;;;47.10;15.05;;;0.70;99.90;;;;;;10365483;28;20042;-52
2021/01/01 03:31:25;;;;;;;36.15;14.18;;;0.70;99.90;;;;;;10366285;28;20037;-52
2021/01/01 03:36:46;;;;;;;41.67;13.63;;;0.70;99.90;;;;;;10368031;28;20753;-52
2021/01/01 03:42:09;;;;;;;29.70;12.43;;;0.80;99.90;;;;;;10365058;28;20056;-52
2021/01/01 03:47:30;;;;;;;42.63;13.23;;;0.80;99.90;;;;;;10366051;28;20846;-52
2021/01/01 03:52:51;;;;;;;49.63;15.98;;;0.80;99.90;;;;;;10380099;28;20525;-52
2021/01/01 03:58:12;;;;;;;26.77;12.77;;;0.80;99.90;;;;;;10362544;28;20103;-52
2021/01/01 04:03:33;;;;;;;31.40;10.00;;;0.90;99.90;;;;;;10365508;28;20072;-52
2021/01/01 04:08:54;;;;;;;38.80;14.90;;;0.90;99.90;;;;;;10365091;28;20033;-52
2021/01/01 04:14:15;;;;;;;37.80;13.82;;;1.00;99.90;;;;;;10364015;28;20030;-52
2021/01/01 04:19:36;;;;;;;34.80;14.38;;;1.10;99.90;;;;;;10363970;28;20033;-52
2021/01/01 04:24:57;;;;;;;38.08;11.70;;;1.10;99.90;;;;;;10363142;28;20034;-52
2021/01/01 04:30:18;;;;;;;34.40;12.18;;;1.20;99.90;;;;;;10362713;28;20061;-53
2021/01/01 04:35:39;;;;;;;23.38;10.07;;;1.20;99.90;;;;;;10366158;28;20053;-53
2021/01/01 04:41:01;;;;;;;28.00;10.32;;;1.20;99.90;;;;;;10365411;28;20482;-52
2021/01/01 04:46:22;;;;;;;46.63;15.15;;;1.30;99.90;;;;;;10363903;28;20042;-52
2021/01/01 04:51:44;;;;;;;32.67;12.68;;;1.30;99.90;;;;;;10375113;28;20548;-52
2021/01/01 04:57:04;;;;;;;33.13;9.90;;;1.40;99.90;;;;;;10360526;28;20030;-52
2021/01/01 05:02:25;;;;;;;34.03;13.50;;;1.40;99.90;;;;;;10362759;28;20110;-52
2021/01/01 05:07:46;;;;;;;36.42;10.98;;;1.40;99.90;;;;;;10360814;28;20068;-52
2021/01/01 05:13:12;;;;;;;31.75;13.02;;;1.50;99.90;;;;;;10362164;28;20089;-52
2021/01/01 05:18:33;;;;;;;53.58;14.15;;;1.50;99.90;;;;;;10372685;28;20053;-52
2021/01/01 05:23:56;;;;;;;32.50;10.02;;;1.50;99.90;;;;;;10373545;28;20046;-52
2021/01/01 05:29:21;;;;;;;38.78;11.65;;;1.60;99.90;;;;;;10361347;28;20127;-52
2021/01/01 05:34:43;;;;;;;34.92;11.27;;;1.60;99.90;;;;;;10364437;28;20041;-52
2021/01/01 05:40:06;;;;;;;32.60;8.80;;;1.70;99.90;;;;;;10363275;28;20470;-52
2021/01/01 05:45:27;;;;;;;47.65;11.65;;;1.80;99.90;;;;;;10361459;28;20125;-52
2021/01/01 05:51:04;;;;;;;46.15;14.85;;;1.80;99.90;;;;;;10362372;28;20037;-52
2021/01/01 05:56:25;;;;;;;44.85;11.95;;;1.80;99.90;;;;;;10358939;28;20065;-52
2021/01/01 06:01:47;;;;;;;40.35;11.50;;;1.90;99.90;;;;;;10362694;28;20553;-52
2021/01/01 06:07:10;;;;;;;36.22;11.70;;;1.80;99.90;;;;;;10359085;28;20084;-52
2021/01/01 06:12:37;;;;;;;32.33;11.05;;;1.80;99.90;;;;;;10359510;28;20030;-52
2021/01/01 06:18:05;;;;;;;39.55;11.50;;;1.80;99.90;;;;;;10358777;28;20723;-52
2021/01/01 06:23:40;;;;;;;25.05;8.85;;;1.90;99.90;;;;;;10366998;28;20069;-52
2021/01/01 06:29:01;;;;;;;23.67;8.88;;;1.90;99.90;;;;;;10367948;28;20128;-52
2021/01/01 06:34:29;;;;;;;32.42;10.23;;;2.00;99.90;;;;;;10369075;28;20057;-52
2021/01/01 06:39:50;;;;;;;30.87;9.27;;;2.10;99.90;;;;;;10367284;28;20088;-52
2021/01/01 06:45:30;;;;;;;18.67;6.32;;;2.00;99.90;;;;;;10368702;28;20482;-52
2021/01/01 06:50:52;;;;;;;22.38;7.55;;;2.00;99.90;;;;;;10369181;28;20383;-52
2021/01/01 06:56:13;;;;;;;25.95;7.95;;;2.00;99.90;;;;;;10366883;28;20140;-52
2021/01/01 07:01:45;;;;;;;22.90;6.80;;;2.10;99.90;;;;;;10369019;28;20510;-52
2021/01/01 07:07:06;;;;;;;16.67;5.32;;;2.10;99.90;;;;;;10369422;28;20287;-52
2021/01/01 07:12:27;;;;;;;20.60;6.15;;;2.20;99.90;;;;;;10368302;28;20817;-52
2021/01/01 07:17:48;;;;;;;17.33;6.93;;;2.20;99.90;;;;;;10368832;28;20493;-52
2021/01/01 07:23:09;;;;;;;15.45;4.88;;;2.20;99.90;;;;;;10367695;28;20149;-53
2021/01/01 07:28:30;;;;;;;10.48;4.13;;;2.20;99.90;;;;;;10368316;28;20615;-52
2021/01/01 07:33:52;;;;;;;12.40;3.97;;;2.30;99.90;;;;;;10364964;28;20046;-52
2021/01/01 07:39:13;;;;;;;10.70;3.35;;;2.40;99.90;;;;;;10366989;28;20132;-52
2021/01/01 07:44:34;;;;;;;9.65;4.20;;;2.40;99.90;;;;;;10365860;28;20080;-52
2021/01/01 07:49:54;;;;;;;8.52;3.47;;;2.40;99.90;;;;;;10365705;28;20036;-52
2021/01/01 07:55:21;;;;;;;11.65;2.75;;;2.40;99.90;;;;;;10366540;28;20045;-52
2021/01/01 08:00:45;;;;;;;6.50;3.28;;;2.50;99.90;;;;;;10365599;28;20040;-52
2021/01/01 08:06:07;;;;;;;5.90;2.70;;;2.70;99.90;;;;;;10364412;28;20056;-52
2021/01/01 08:11:28;;;;;;;9.70;2.30;;;2.70;99.90;;;;;;10366198;28;20374;-52
2021/01/01 08:16:49;;;;;;;5.78;2.85;;;2.70;99.90;;;;;;10364460;28;20033;-52
2021/01/01 08:22:13;;;;;;;7.60;2.20;;;2.70;99.90;;;;;;10364720;28;20496;-52
2021/01/01 08:27:34;;;;;;;3.40;1.33;;;2.80;99.90;;;;;;10362803;28;20056;-53
2021/01/01 08:32:57;;;;;;;3.20;2.03;;;2.80;99.90;;;;;;10373726;28;20037;-52
2021/01/01 08:38:19;;;;;;;3.53;1.42;;;2.90;99.90;;;;;;10363461;28;20087;-52
2021/01/01 08:43:40;;;;;;;6.03;2.35;;;3.00;99.90;;;;;;10363168;28;20103;-53
2021/01/01 08:49:15;;;;;;;4.35;1.20;;;3.20;99.90;;;;;;10364298;28;20042;-52
2021/01/01 08:54:36;;;;;;;6.90;3.17;;;3.20;99.90;;;;;;10362932;28;20188;-52
2021/01/01 08:59:59;;;;;;;3.47;0.80;;;3.30;99.90;;;;;;10361554;28;20038;-52
2021/01/01 09:05:24;;;;;;;3.80;2.17;;;3.40;99.90;;;;;;10362948;28;20037;-52
2021/01/01 09:10:47;;;;;;;3.83;1.60;;;3.50;99.90;;;;;;10362384;28;20037;-52
2021/01/01 09:16:09;;;;;;;2.13;0.90;;;3.60;99.90;;;;;;10361417;28;20029;-52
2021/01/01 09:21:30;;;;;;;7.80;2.45;;;3.70;99.90;;;;;;10362927;28;20038;-52
2021/01/01 09:26:58;;;;;;;3.17;2.10;;;3.70;99.90;;;;;;10362421;28;20045;-52
2021/01/01 09:32:19;;;;;;;3.60;1.30;;;3.70;99.90;;;;;;10362367;28;20707;-53
2021/01/01 09:37:53;;;;;;;7.00;1.55;;;3.70;99.90;;;;;;10364200;28;20050;-52
2021/01/01 09:43:13;;;;;;;1.83;0.93;;;3.70;99.90;;;;;;10361350;28;20505;-52
2021/01/01 09:48:34;;;;;;;3.90;1.38;;;3.70;99.90;;;;;;10362134;28;20041;-52
2021/01/01 09:53:55;;;;;;;5.90;2.67;;;3.70;99.90;;;;;;10366963;28;20050;-52
2021/01/01 09:59:16;;;;;;;3.10;1.13;;;3.70;99.90;;;;;;10362683;28;20041;-52
2021/01/01 10:04:37;;;;;;;5.22;1.65;;;3.80;99.90;;;;;;10371421;28;20045;-52
2021/01/01 10:09:58;;;;;;;7.18;2.28;;;3.70;99.90;;;;;;10361527;28;20099;-52
2021/01/01 10:15:19;;;;;;;4.45;1.35;;;3.70;99.90;;;;;;10362655;28;20042;-52
2021/01/01 10:20:40;;;;;;;8.43;2.30;;;3.80;99.90;;;;;;10364614;28;20034;-52
2021/01/01 10:26:01;;;;;;;2.85;1.60;;;3.90;99.90;;;;;;10361292;28;20621;-54
2021/01/01 10:31:24;;;;;;;5.10;1.70;;;4.00;99.90;;;;;;10361207;28;20057;-52
2021/01/01 10:36:45;;;;;;;5.50;2.58;;;4.00;99.90;;;;;;10360398;28;20042;-52
2021/01/01 10:42:07;;;;;;;5.28;2.20;;;4.00;99.90;;;;;;10361501;28;20500;-52
2021/01/01 10:47:28;;;;;;;7.15;1.90;;;4.10;99.90;;;;;;10361349;28;20038;-52
2021/01/01 10:52:49;;;;;;;3.15;1.35;;;4.20;99.90;;;;;;10361404;28;20061;-52
2021/01/01 10:58:10;;;;;;;3.40;1.60;;;4.20;99.90;;;;;;10359001;28;20113;-52
2021/01/01 11:03:30;;;;;;;4.90;2.10;;;4.30;99.90;;;;;;10361547;28;20041;-52
2021/01/01 11:08:51;;;;;;;4.57;1.50;;;4.30;99.90;;;;;;10364621;28;20034;-52
2021/01/01 11:14:18;;;;;;;4.88;1.90;;;4.40;99.90;;;;;;10367618;28;20050;-52
2021/01/01 12:28:08;;;;;;;4.53;1.90;;;9.30;99.90;;;;;;10363794;28;20033;-52
2021/01/01 12:33:29;;;;;;;4.03;1.83;;;9.40;99.90;;;;;;10363973;28;20041;-53
2021/01/01 12:38:50;;;;;;;3.80;1.88;;;8.40;99.90;;;;;;10365392;28;20064;-52
2021/01/01 12:44:11;;;;;;;3.17;1.33;;;7.70;99.90;;;;;;10365120;28;20421;-52
2021/01/01 12:49:32;;;;;;;6.43;1.60;;;7.40;99.90;;;;;;10363405;28;20111;-52
2021/01/01 12:54:54;;;;;;;6.50;2.17;;;7.00;99.90;;;;;;10364423;28;20072;-52
2021/01/01 13:00:16;;;;;;;6.28;2.42;;;6.70;99.90;;;;;;10362560;28;20038;-52
2021/01/01 13:05:37;;;;;;;3.97;1.90;;;6.40;99.90;;;;;;10360269;28;20062;-52
2021/01/01 13:10:57;;;;;;;9.77;2.15;;;6.30;99.90;;;;;;10363918;28;20092;-52
2021/01/01 13:16:28;;;;;;;4.07;1.42;;;6.10;99.90;;;;;;10366835;28;20088;-52
2021/01/01 13:21:49;;;;;;;3.53;1.48;;;6.10;99.90;;;;;;10363585;28;20034;-52
2021/01/01 13:27:09;;;;;;;5.80;1.75;;;6.10;99.90;;;;;;10360702;28;20394;-52
2021/01/01 13:32:30;;;;;;;3.55;1.65;;;6.10;99.90;;;;;;10362790;28;20060;-52
2021/01/01 13:37:52;;;;;;;5.00;2.10;;;6.10;99.90;;;;;;10362659;28;20045;-52
2021/01/01 13:43:12;;;;;;;4.82;1.75;;;6.10;99.90;;;;;;10361265;28;20050;-52
2021/01/01 13:48:35;;;;;;;2.33;1.27;;;6.00;99.90;;;;;;10362760;28;20057;-52
2021/01/01 13:53:56;;;;;;;4.82;1.50;;;6.10;99.90;;;;;;10376891;28;20061;-51
2021/01/01 13:59:18;;;;;;;3.53;1.23;;;6.10;99.90;;;;;;10374183;28;20088;-52
2021/01/01 14:04:39;;;;;;;2.58;1.48;;;6.10;99.90;;;;;;10361814;28;20133;-52
2021/01/01 14:10:00;;;;;;;1.77;1.00;;;6.00;99.90;;;;;;10361465;28;20441;-52
2021/01/01 14:15:21;;;;;;;1.35;0.65;;;6.10;99.90;;;;;;10361762;28;20061;-52
2021/01/01 14:20:43;;;;;;;6.00;2.13;;;6.10;99.90;;;;;;10360094;28;20050;-51
2021/01/01 14:26:04;;;;;;;4.05;1.30;;;6.00;99.90;;;;;;10360605;28;20201;-52
2021/01/01 14:31:25;;;;;;;2.67;1.23;;;6.00;99.90;;;;;;10362760;28;20033;-52
2021/01/01 14:36:46;;;;;;;6.15;3.20;;;5.90;99.90;;;;;;10363587;28;20037;-52
2021/01/01 14:42:07;;;;;;;2.10;1.00;;;5.90;99.90;;;;;;10362048;28;20040;-52
2021/01/01 14:47:31;;;;;;;2.15;0.80;;;5.80;99.90;;;;;;10369077;28;20120;-51
2021/01/01 14:52:52;;;;;;;1.77;1.17;;;5.80;99.90;;;;;;10367958;28;20045;-52
2021/01/01 14:58:12;;;;;;;1.90;0.63;;;5.80;99.90;;;;;;10367914;28;20044;-52
2021/01/01 15:03:33;;;;;;;4.78;2.03;;;5.80;99.90;;;;;;10367416;28;20045;-52
2021/01/01 15:08:54;;;;;;;5.50;2.00;;;5.80;99.90;;;;;;10368050;28;21215;-52
2021/01/01 15:14:16;;;;;;;5.70;2.05;;;5.80;99.90;;;;;;10369091;28;20038;-52
2021/01/01 15:19:37;;;;;;;3.50;1.52;;;5.80;99.90;;;;;;10366538;28;20038;-52
2021/01/01 15:24:58;;;;;;;3.85;1.75;;;5.70;99.90;;;;;;10370780;28;20050;-52
2021/01/01 15:30:19;;;;;;;8.85;2.60;;;5.70;99.90;;;;;;10368115;28;20038;-52
2021/01/01 15:35:40;;;;;;;8.02;2.50;;;5.60;99.90;;;;;;10379014;28;20120;-52
2021/01/01 15:41:01;;;;;;;14.57;5.15;;;5.50;99.90;;;;;;10379583;28;20034;-52
2021/01/01 15:46:22;;;;;;;5.25;2.33;;;5.50;99.90;;;;;;10366693;28;20088;-52
2021/01/01 15:51:48;;;;;;;7.75;2.38;;;5.40;99.90;;;;;;10365751;28;20164;-52
2021/01/01 15:57:09;;;;;;;3.47;1.67;;;5.30;99.90;;;;;;10363943;28;20026;-52
2021/01/01 16:02:30;;;;;;;4.70;1.90;;;5.10;99.90;;;;;;10366023;28;20479;-52
2021/01/01 16:07:51;;;;;;;6.93;2.97;;;5.00;99.90;;;;;;10365362;28;20053;-52
2021/01/01 16:13:12;;;;;;;6.88;2.58;;;4.90;99.90;;;;;;10364474;28;20157;-52
2021/01/01 16:18:33;;;;;;;6.18;1.80;;;4.80;99.90;;;;;;10366526;28;20160;-52
2021/01/01 16:23:54;;;;;;;4.00;1.67;;;4.80;99.90;;;;;;10367560;28;20046;-52
2021/01/01 16:29:19;;;;;;;5.80;3.05;;;5.00;99.90;;;;;;10366124;28;20084;-52
2021/01/01 16:34:40;;;;;;;12.23;4.93;;;4.90;99.90;;;;;;10363548;28;20574;-52
2021/01/01 16:40:01;;;;;;;7.25;1.95;;;4.90;99.90;;;;;;10361994;28;20034;-52
2021/01/01 16:45:23;;;;;;;3.65;1.83;;;4.90;99.90;;;;;;10366132;28;20049;-52
2021/01/01 16:50:44;;;;;;;5.68;1.60;;;4.80;99.90;;;;;;10364727;28;20026;-52
2021/01/01 16:56:09;;;;;;;4.97;1.63;;;4.90;99.90;;;;;;10363218;28;20030;-53
2021/01/01 17:01:43;;;;;;;6.03;1.65;;;4.90;99.90;;;;;;10363635;28;20037;-52
2021/01/01 17:07:06;;;;;;;3.47;2.00;;;4.80;99.90;;;;;;10363803;28;20030;-52
2021/01/01 17:12:27;;;;;;;4.88;1.90;;;4.80;99.90;;;;;;10362030;28;20125;-52
2021/01/01 17:17:48;;;;;;;3.97;2.45;;;4.80;99.90;;;;;;10363301;28;20450;-53
2021/01/01 17:23:09;;;;;;;4.28;2.25;;;4.70;99.90;;;;;;10362732;28;20132;-53
2021/01/01 17:28:30;;;;;;;3.60;1.58;;;4.60;99.90;;;;;;10363140;28;20042;-52
2021/01/01 17:33:53;;;;;;;12.13;1.63;;;4.70;99.90;;;;;;10359715;28;20042;-53
2021/01/01 17:39:14;;;;;;;6.43;1.77;;;4.70;99.90;;;;;;10363070;28;20107;-53
2021/01/01 17:44:35;;;;;;;6.60;2.08;;;4.80;99.90;;;;;;10373401;28;20034;-53
2021/01/01 17:49:56;;;;;;;4.80;1.75;;;4.90;99.90;;;;;;10361745;28;20096;-52
2021/01/01 17:55:17;;;;;;;3.38;1.88;;;4.80;99.90;;;;;;10364338;28;20528;-53
2021/01/01 18:00:38;;;;;;;4.35;1.33;;;4.80;99.90;;;;;;10362338;28;20496;-53
2021/01/01 18:06:00;;;;;;;3.97;2.08;;;4.70;99.90;;;;;;10360943;28;20046;-53
2021/01/01 18:11:23;;;;;;;7.20;1.98;;;4.70;99.90;;;;;;10364310;28;20174;-52
2021/01/01 18:16:44;;;;;;;3.35;1.92;;;4.70;99.90;;;;;;10367408;28;20070;-52
2021/01/01 18:22:05;;;;;;;6.53;2.10;;;4.70;99.90;;;;;;10379714;28;20060;-53
2021/01/01 18:27:26;;;;;;;3.58;1.42;;;4.60;99.90;;;;;;10363958;28;20077;-52
2021/01/01 18:32:56;;;;;;;8.45;2.28;;;4.50;99.90;;;;;;10363667;28;20026;-53
2021/01/01 18:38:22;;;;;;;;;;;4.40;99.90;;;;;;10361582;28;20155;-53
2021/01/01 18:43:59;;;;;;;3.88;1.98;;;4.30;99.90;;;;;;10366836;28;20361;-53
2021/01/01 18:49:20;;;;;;;8.70;1.98;;;4.30;99.90;;;;;;10363115;28;20567;-53
2021/01/01 18:54:42;;;;;;;5.10;2.38;;;4.30;99.90;;;;;;10363892;28;20042;-52
2021/01/01 19:00:03;;;;;;;3.60;2.05;;;4.30;99.90;;;;;;10364170;28;20038;-52
2021/01/01 19:05:46;;;;;;;3.65;1.73;;;4.30;99.90;;;;;;10363513;28;20049;-53
2021/01/01 19:11:10;;;;;;;7.00;2.17;;;4.30;99.90;;;;;;10364990;28;20078;-53
2021/01/01 19:16:31;;;;;;;7.72;2.47;;;4.30;99.90;;;;;;10364348;28;20498;-53
2021/01/01 19:22:04;;;;;;;7.15;2.05;;;4.40;99.90;;;;;;10360142;28;20049;-53
2021/01/01 19:27:50;;;;;;;8.05;2.97;;;4.40;99.90;;;;;;10357631;28;20049;-52
2021/01/01 19:33:23;;;;;;;8.35;2.88;;;4.40;99.90;;;;;;10375820;28;20034;-53
2021/01/01 19:39:11;;;;;;;9.23;3.58;;;4.60;99.90;;;;;;10366061;28;20041;-54
2021/01/01 19:44:53;;;;;;;5.18;2.00;;;4.50;99.90;;;;;;10363429;28;20467;-52
2021/01/01 19:50:24;;;;;;;8.82;2.65;;;4.60;99.90;;;;;;10361922;28;20041;-52
2021/01/01 19:55:53;;;;;;;10.55;2.25;;;4.50;99.90;;;;;;10361466;28;20042;-52
2021/01/01 20:01:43;;;;;;;4.93;1.98;;;4.60;99.90;;;;;;10360978;28;20037;-52
2021/01/01 20:07:16;;;;;;;7.28;2.50;;;4.50;99.90;;;;;;10354418;28;20061;-52
2021/01/01 20:12:52;;;;;;;5.38;2.28;;;4.50;99.90;;;;;;10361759;28;20521;-52
2021/01/01 20:18:14;;;;;;;26.48;11.63;;;4.40;99.90;;;;;;10357071;28;20091;-52
2021/01/01 20:23:40;;;;;;;24.65;10.27;;;4.40;99.90;;;;;;10360850;28;20228;-52
2021/01/01 20:29:04;;;;;;;27.80;10.82;;;4.40;99.90;;;;;;10360385;28;20157;-52
2021/01/01 20:34:40;;;;;;;11.30;3.65;;;4.50;99.90;;;;;;10359380;28;21069;-52
2021/01/01 20:40:07;;;;;;;5.93;3.28;;;4.40;99.90;;;;;;10357824;28;20034;-52
2021/01/01 20:57:37;;;;;;;8.80;2.53;;;4.50;99.90;;;;;;10362130;28;20477;-52
2021/01/01 21:02:58;;;;;;;7.07;2.90;;;4.40;99.90;;;;;;10355547;28;20528;-52
2021/01/01 21:08:41;;;;;;;16.35;3.63;;;4.50;99.90;;;;;;10356422;28;20042;-52
2021/01/01 21:14:27;;;;;;;7.38;2.85;;;4.50;99.90;;;;;;10355802;28;20041;-52
2021/01/01 21:20:18;;;;;;;9.52;2.78;;;4.50;99.90;;;;;;10356926;28;20056;-52
2021/01/01 21:26:08;;;;;;;6.20;2.78;;;4.50;99.90;;;;;;10359124;28;20151;-52
2021/01/01 21:31:53;;;;;;;5.80;2.10;;;4.50;99.90;;;;;;10359006;28;20088;-53
2021/01/01 21:37:52;;;;;;;7.25;2.33;;;4.50;99.90;;;;;;10363338;28;21259;-52
2021/01/01 21:43:59;;;;;;;9.10;3.03;;;4.50;99.90;;;;;;10365857;28;20042;-52
2021/01/01 21:49:22;;;;;;;6.25;2.15;;;4.50;99.90;;;;;;10358976;28;20060;-52
2021/01/01 21:54:43;;;;;;;6.35;2.80;;;4.60;99.90;;;;;;10357409;28;20042;-52
2021/01/01 22:00:05;;;;;;;5.93;2.95;;;4.60;99.90;;;;;;10357750;28;20034;-52
2021/01/01 22:05:26;;;;;;;4.28;2.17;;;4.60;99.90;;;;;;10359530;28;20699;-52
2021/01/01 22:10:48;;;;;;;5.72;2.42;;;4.60;99.90;;;;;;10359504;28;20418;-52
2021/01/01 22:16:09;;;;;;;9.82;3.97;;;4.60;99.90;;;;;;10372760;28;20060;-52
2021/01/01 22:21:30;;;;;;;9.88;2.75;;;4.70;99.90;;;;;;10361969;28;20034;-52
2021/01/01 22:26:59;;;;;;;4.47;1.88;;;4.60;99.90;;;;;;10358685;28;20108;-52
2021/01/01 22:32:20;;;;;;;12.10;2.00;;;4.60;99.90;;;;;;10365228;28;20037;-52
2021/01/01 22:37:40;;;;;;;10.50;3.03;;;4.60;99.90;;;;;;10375276;28;20034;-52
2021/01/01 22:43:01;;;;;;;5.13;2.15;;;4.60;99.90;;;;;;10361844;28;20030;-52
2021/01/01 22:48:22;;;;;;;11.60;3.70;;;4.60;99.90;;;;;;10377582;28;20045;-52
2021/01/01 22:53:43;;;;;;;11.98;3.20;;;4.60;99.90;;;;;;10360129;28;20033;-52
2021/01/01 22:59:12;;;;;;;5.13;3.20;;;4.50;99.90;;;;;;10361608;28;20417;-52
2021/01/01 23:04:41;;;;;;;10.18;2.95;;;4.50;99.90;;;;;;10364809;28;20804;-52
2021/01/01 23:10:03;;;;;;;18.55;3.10;;;4.60;99.90;;;;;;10371377;28;20061;-52
2021/01/01 23:15:25;;;;;;;5.70;2.17;;;4.60;99.90;;;;;;10366735;28;20128;-52
2021/01/01 23:20:48;;;;;;;9.73;2.63;;;4.70;99.90;;;;;;10366295;28;20030;-52
2021/01/01 23:26:24;;;;;;;12.05;3.47;;;4.70;99.90;;;;;;10363041;28;20057;-52
2021/01/01 23:32:14;;;;;;;9.65;3.60;;;4.70;99.90;;;;;;10363011;28;20107;-52
2021/01/01 23:38:02;;;;;;;8.98;2.92;;;4.70;99.90;;;;;;10371813;28;20040;-52
2021/01/01 23:43:29;;;;;;;5.53;2.92;;;4.70;99.90;;;;;;10359588;28;20037;-52
2021/01/01 23:48:54;;;;;;;8.90;3.17;;;4.70;99.90;;;;;;10367748;28;20075;-52
2021/01/01 23:54:22;;;;;;;4.45;2.30;;;4.70;99.90;;;;;;10359209;28;20453;-51
2021/01/01 23:59:44;;;;;;;10.55;2.10;;;4.70;99.90;;;;;;10358981;28;20469;-52
